Meteo Giornale » Osservazioni meteo Repubblica Ceca » Ostrava-Mosnov

ore: 20:00 - Osservazioni Meteo Ostrava-Mosnov
Lat. 49° 41' N Lon. 18° 7' E Alt. 256 metri s.l.m.

sereno

19 °C

Sereno

Temp. 24 Ore

14 °C

24 °C

Ovest

9.3 Km/h

Dew point 10 °C

Umidità 55 %

Visibilità  10 Km

Il sole sorge alle ore 06:03

Il sole tramonta alle ore 19:31

Data e Ora Cielo e Fenomeni T °C DP °C Um. % Pres. hPa Vis. km Vento km/h
Oggi h: 20:00 sereno Sereno 19 10 55 1020 10 O 9.3
Oggi h: 19:30 sereno Sereno 20 10 52 1020 10 O/SO 9.3
Oggi h: 19:00 sereno Sereno 21 11 52 1020 10 O 9.3
Oggi h: 18:30 sereno Sereno 22 10 46 1020 10 O 13
Oggi h: 18:00 sereno Sereno 22 9 43 1020 10 O 16.7
Oggi h: 17:30 sereno Sereno 23 9 40 1020 10 O 16.7
Oggi h: 17:00 sereno Sereno 23 10 43 1019 10 O/SO 22.2
Oggi h: 16:30 sereno Sereno 22 9 43 1019 10 O 14.8
Oggi h: 16:00 sereno Sereno 22 9 43 1019 10 O 22.2
Oggi h: 15:30 sereno Sereno 24 9 38 1019 10 O 24
Oggi h: 15:00 sereno Sereno 24 9 38 1019 10 O 24
Oggi h: 14:30 sereno Sereno 23 9 40 1019 10 O/SO 20.3
Oggi h: 14:00 sereno Sereno 23 10 43 1020 10 O/SO 24
Oggi h: 13:30 sereno Sereno 24 10 41 1020 10 O/SO 24
Oggi h: 13:00 nuvoloso Nuvoloso 22 10 46 1020 10 O/SO 24
Oggi h: 12:30 sereno Sereno 22 10 46 1020 10 O/SO 27.8
Oggi h: 12:00 sereno Sereno 21 10 49 1020 10 O/SO 24
Oggi h: 11:30 molto_nuvoloso Molto Nuvoloso 22 10 46 1020 10 O/SO 25.9
Oggi h: 11:00 molto_nuvoloso Molto Nuvoloso 22 10 46 1020 10 O/SO 29.6
Oggi h: 10:30 nuvoloso Nuvoloso 21 10 49 1019 10 O/SO 22.2
Oggi h: 10:00 nuvoloso Nuvoloso 20 11 56 1019 10 O/SO 16.7
Oggi h: 09:30 poco_nuvoloso Poco Nuvoloso 19 11 59 1019 10 SO 14.8
Oggi h: 09:00 sereno Sereno 19 11 59 1019 10 SO 16.7
Oggi h: 08:30 sereno Sereno 19 12 63 1018 10 SO 24
Oggi h: 08:00 sereno Sereno 18 12 67 1018 10 SO 20.3
Oggi h: 07:30 sereno Sereno 17 12 72 1018 10 SO 22.2
Oggi h: 07:00 sereno Sereno 16 12 77 1018 10 O/SO 11.1
Oggi h: 06:30 sereno Sereno 16 11 72 1018 10 N 5.5
Oggi h: 06:00 sereno Sereno 16 12 77 1017 10 SO 16.7
Oggi h: 05:30 sereno Sereno 15 12 82 1017 10 SO 18.5
Oggi h: 05:00 sereno Sereno 15 12 82 1017 10 SO 18.5
Oggi h: 04:30 sereno Sereno 14 12 87 1016 10 O/SO 13
Oggi h: 04:00 sereno Sereno 14 12 87 1016 10 O/SO 14.8
Oggi h: 03:30 sereno Sereno 15 13 87 1016 10 SO 14.8
Oggi h: 03:00 sereno Sereno 17 14 82 1017 10 N 5.5
Oggi h: 02:30 sereno Sereno 18 14 77 1017 10 N 5.5
Oggi h: 02:00 sereno Sereno 19 13 68 1017 10 O/SO 7.4
Oggi h: 01:30 sereno Sereno 16 14 87 1017 10 O/SO 11.1
Oggi h: 01:00 sereno Sereno 16 14 87 1017 10 O/SO 11.1
Oggi h: 00:30 sereno Sereno 16 14 87 1017 10 S/SO 7.4
Oggi h: 00:00 sereno Sereno 16 14 87 1017 10 O/SO 7.4
Ieri h: 23:30 sereno Sereno 18 15 82 1017 10 S/SO 9.3
Ieri h: 23:00 sereno Sereno 19 15 77 1016 10 S 7.4
Ieri h: 22:30 sereno Sereno 18 15 82 1016 10 N 3.7
Ieri h: 22:00 sereno Sereno 19 14 72 1016 10 N 5.5
Ieri h: 21:30 sereno Sereno 20 14 68 1016 10 N 3.7
Ieri h: 21:00 sereno Sereno 21 14 64 1015 10 N 1.8